Time;durP1;ratioP1;P1;durP2;ratioP2;P2;SDS_P1;SDS_P2;PMS_P1;PMS_P2;Temp;Humidity;BMP_temperature;BMP_pressure;BME280_temperature;BME280_humidity;BME280_pressure;Samples;Min_cycle;Max_cycle;Signal;HPM_P1;HPM_P2
2023/04/17 00:00:28;;;;;;;;;;;20.50;45.10;;;;;;3052567;19;4865;-79
2023/04/17 00:01:29;;;;;;;;;;;20.50;45.10;;;;;;3051906;19;4818;-80
2023/04/17 00:02:30;;;;;;;;;;;20.50;45.10;;;;;;3052003;19;5040;-81
2023/04/17 00:03:30;;;;;;;;;;;20.50;45.20;;;;;;3053093;19;4870;-80
2023/04/17 00:04:31;;;;;;;;;;;20.50;45.20;;;;;;3051528;19;4819;-79
2023/04/17 00:05:32;;;;;;;;;;;20.50;45.20;;;;;;3051674;19;5038;-81
2023/04/17 00:06:33;;;;;;;;;;;20.50;45.20;;;;;;3052756;19;4352;-79
2023/04/17 00:07:37;;;;;;;;;;;20.50;45.20;;;;;;3050584;19;4904;-79
2023/04/17 00:08:39;;;;;;;;;;;20.50;45.20;;;;;;3050624;19;4689;-81
2023/04/17 00:09:39;;;;;;;;;;;20.50;45.20;;;;;;3052125;19;5004;-80
2023/04/17 00:10:40;;;;;;;;;;;20.50;45.20;;;;;;3050687;19;4704;-81
2023/04/17 00:11:40;;;;;;;;;;;20.50;45.20;;;;;;3051978;19;4655;-79
2023/04/17 00:12:41;;;;;;;;;;;20.50;45.30;;;;;;3053097;19;4867;-80
2023/04/17 00:13:42;;;;;;;;;;;20.40;45.20;;;;;;3052524;19;4902;-78
2023/04/17 00:14:44;;;;;;;;;;;20.50;45.30;;;;;;3050454;19;5067;-79
2023/04/17 00:15:45;;;;;;;;;;;20.50;45.30;;;;;;3053075;19;4855;-79
2023/04/17 00:16:46;;;;;;;;;;;20.40;45.30;;;;;;3052895;19;4377;-80
2023/04/17 00:17:47;;;;;;;;;;;20.40;45.30;;;;;;3052196;19;5086;-81
2023/04/17 00:18:47;;;;;;;;;;;20.40;45.30;;;;;;3053234;19;4358;-78
2023/04/17 00:19:49;;;;;;;;;;;20.40;45.30;;;;;;3051287;19;4799;-78
2023/04/17 00:20:49;;;;;;;;;;;20.40;45.30;;;;;;3050341;19;4887;-79
2023/04/17 00:21:50;;;;;;;;;;;20.50;45.40;;;;;;3051939;19;4440;-80
2023/04/17 00:22:50;;;;;;;;;;;20.40;45.30;;;;;;3051520;19;4978;-80
2023/04/17 00:23:51;;;;;;;;;;;20.40;45.30;;;;;;3048757;19;4834;-80
2023/04/17 00:24:52;;;;;;;;;;;20.40;45.30;;;;;;3052262;19;4777;-79
2023/04/17 00:25:52;;;;;;;;;;;20.40;45.30;;;;;;3052018;19;4837;-78
2023/04/17 00:26:53;;;;;;;;;;;20.40;45.30;;;;;;3051049;19;5302;-79
2023/04/17 00:27:54;;;;;;;;;;;20.40;45.30;;;;;;3051077;19;4819;-83
2023/04/17 00:28:55;;;;;;;;;;;20.40;45.30;;;;;;3051667;19;4302;-79
2023/04/17 00:29:55;;;;;;;;;;;20.40;45.30;;;;;;3050634;19;4710;-82
2023/04/17 00:30:57;;;;;;;;;;;20.40;45.30;;;;;;3051159;19;4351;-80
2023/04/17 00:31:58;;;;;;;;;;;20.40;45.40;;;;;;3052186;19;5198;-80
2023/04/17 00:32:59;;;;;;;;;;;20.40;45.40;;;;;;3051525;19;4867;-81
2023/04/17 00:34:00;;;;;;;;;;;20.40;45.40;;;;;;3052036;19;5005;-83
2023/04/17 00:35:00;;;;;;;;;;;20.40;45.40;;;;;;3051208;19;4284;-79
2023/04/17 00:36:01;;;;;;;;;;;20.40;45.40;;;;;;3050197;19;4322;-79
2023/04/17 00:37:02;;;;;;;;;;;20.40;45.40;;;;;;3050744;19;5961;-80
2023/04/17 00:38:03;;;;;;;;;;;20.40;45.30;;;;;;3051089;19;4394;-80
2023/04/17 00:39:04;;;;;;;;;;;20.40;45.40;;;;;;3051828;19;4339;-79
2023/04/17 00:40:05;;;;;;;;;;;20.40;45.50;;;;;;3053065;19;4382;-79
2023/04/17 00:41:06;;;;;;;;;;;20.40;45.50;;;;;;3049523;19;4933;-80
2023/04/17 00:42:08;;;;;;;;;;;20.40;45.40;;;;;;3050171;19;4454;-81
2023/04/17 00:43:09;;;;;;;;;;;20.40;45.50;;;;;;3051149;19;4883;-78
2023/04/17 00:44:09;;;;;;;;;;;20.40;45.50;;;;;;3050677;19;4899;-79
2023/04/17 00:45:10;;;;;;;;;;;20.40;45.50;;;;;;3049168;19;4831;-80
2023/04/17 00:46:11;;;;;;;;;;;20.30;45.50;;;;;;3050582;19;4792;-80
2023/04/17 00:47:12;;;;;;;;;;;20.40;45.50;;;;;;3052088;19;868;-79
2023/04/17 00:48:13;;;;;;;;;;;20.30;45.40;;;;;;3050653;19;4908;-78
2023/04/17 00:49:14;;;;;;;;;;;20.40;45.50;;;;;;3050293;19;5682;-82
2023/04/17 00:50:14;;;;;;;;;;;20.30;45.50;;;;;;3049470;19;4371;-79
2023/04/17 00:51:15;;;;;;;;;;;20.40;45.60;;;;;;3050488;19;4938;-82
2023/04/17 00:52:30;;;;;;;;;;;20.40;45.60;;;;;;3050345;19;4899;-82
2023/04/17 00:53:31;;;;;;;;;;;20.30;45.50;;;;;;3051024;19;4782;-81
2023/04/17 00:54:32;;;;;;;;;;;20.30;45.50;;;;;;3052543;19;4304;-80
2023/04/17 00:55:33;;;;;;;;;;;20.30;45.50;;;;;;3049854;19;4934;-80
2023/04/17 00:56:35;;;;;;;;;;;20.30;45.50;;;;;;3051344;19;4876;-82
2023/04/17 00:57:36;;;;;;;;;;;20.40;45.70;;;;;;3051889;19;4351;-79
2023/04/17 00:58:36;;;;;;;;;;;20.30;45.60;;;;;;3051588;19;4540;-79
2023/04/17 00:59:37;;;;;;;;;;;20.30;45.50;;;;;;3050517;19;5018;-80
2023/04/17 01:00:38;;;;;;;;;;;20.30;45.60;;;;;;3050538;19;4883;-80
2023/04/17 01:01:39;;;;;;;;;;;20.30;45.70;;;;;;3049326;19;5109;-78
2023/04/17 01:02:39;;;;;;;;;;;20.30;45.60;;;;;;3051151;19;4852;-80
2023/04/17 01:03:40;;;;;;;;;;;20.30;45.60;;;;;;3051782;19;4769;-82
2023/04/17 01:04:41;;;;;;;;;;;20.30;45.60;;;;;;3052179;19;4837;-79
2023/04/17 01:05:42;;;;;;;;;;;20.30;45.60;;;;;;3051519;19;5126;-79
2023/04/17 01:06:43;;;;;;;;;;;20.30;45.60;;;;;;3052102;19;4370;-79
2023/04/17 01:07:44;;;;;;;;;;;20.30;45.60;;;;;;3050655;19;4834;-80
2023/04/17 01:08:44;;;;;;;;;;;20.30;45.60;;;;;;3050753;19;4387;-78
2023/04/17 01:09:45;;;;;;;;;;;20.30;45.60;;;;;;3052951;19;4374;-76
2023/04/17 01:10:46;;;;;;;;;;;20.30;45.70;;;;;;3051785;19;4949;-80
2023/04/17 01:11:46;;;;;;;;;;;20.30;45.60;;;;;;3052932;19;4393;-80
2023/04/17 01:13:00;;;;;;;;;;;20.30;45.60;;;;;;3053095;19;4876;-80
2023/04/17 01:14:00;;;;;;;;;;;20.30;45.60;;;;;;3053197;19;4956;-78
2023/04/17 01:15:03;;;;;;;;;;;20.30;45.70;;;;;;3053784;19;4300;-80
2023/04/17 01:16:04;;;;;;;;;;;20.30;45.70;;;;;;3055219;19;4894;-81
2023/04/17 01:17:05;;;;;;;;;;;20.30;45.70;;;;;;3056439;19;4501;-80
2023/04/17 01:18:06;;;;;;;;;;;20.30;45.60;;;;;;3055989;19;4335;-80
2023/04/17 01:19:06;;;;;;;;;;;20.30;45.70;;;;;;3054048;19;4736;-79
2023/04/17 01:20:10;;;;;;;;;;;20.30;45.60;;;;;;3054078;19;4915;-80
2023/04/17 01:21:11;;;;;;;;;;;20.30;45.60;;;;;;3054394;19;4974;-83
2023/04/17 01:22:12;;;;;;;;;;;20.30;45.70;;;;;;3051666;19;4661;-78
2023/04/17 01:23:12;;;;;;;;;;;20.30;45.70;;;;;;3053651;19;5059;-78
2023/04/17 01:24:13;;;;;;;;;;;20.30;45.60;;;;;;3053883;19;4986;-80
2023/04/17 01:25:14;;;;;;;;;;;20.30;45.60;;;;;;3055223;19;1563;-81
